Time;durP1;ratioP1;P1;durP2;ratioP2;P2;SDS_P1;SDS_P2;PMS_P1;PMS_P2;Temp;Humidity;BMP_temperature;BMP_pressure;BME280_temperature;BME280_humidity;BME280_pressure;Samples;Min_cycle;Max_cycle;Signal;HPM_P1;HPM_P2
2023/08/13 00:02:25;;;;;;;21.55;3.45;;;;;;;;;;5088192;28;20032;-57
2023/08/13 00:04:51;;;;;;;24.83;4.63;;;;;;;;;;5095777;28;20149;-57
2023/08/13 00:07:17;;;;;;;22.50;3.75;;;;;;;;;;5091936;28;20345;-57
2023/08/13 00:09:44;;;;;;;28.85;4.55;;;;;;;;;;5091158;28;20040;-57
2023/08/13 00:12:10;;;;;;;21.98;3.97;;;;;;;;;;5087850;28;20062;-57
2023/08/13 00:14:36;;;;;;;26.80;5.38;;;;;;;;;;5101069;28;20062;-57
2023/08/13 00:17:04;;;;;;;22.15;5.38;;;;;;;;;;5101089;28;20071;-57
2023/08/13 00:19:31;;;;;;;24.90;4.57;;;;;;;;;;5090923;28;20056;-57
2023/08/13 00:21:57;;;;;;;23.17;3.92;;;;;;;;;;5095075;28;20114;-57
2023/08/13 00:24:23;;;;;;;19.05;4.03;;;;;;;;;;5094622;28;20136;-57
2023/08/13 00:26:49;;;;;;;26.38;4.47;;;;;;;;;;5092263;28;20043;-57
2023/08/13 00:29:15;;;;;;;17.73;3.67;;;;;;;;;;5101539;28;20122;-57
2023/08/13 00:31:41;;;;;;;19.52;3.67;;;;;;;;;;5082597;28;20036;-57
2023/08/13 00:34:08;;;;;;;18.33;3.63;;;;;;;;;;5083469;28;20047;-56
2023/08/13 00:36:34;;;;;;;17.58;3.75;;;;;;;;;;5082448;28;20114;-56
2023/08/13 00:39:00;;;;;;;21.23;4.10;;;;;;;;;;5082010;28;20300;-57
2023/08/13 00:41:26;;;;;;;17.13;4.22;;;;;;;;;;5080853;28;20403;-57
2023/08/13 00:43:52;;;;;;;17.95;3.63;;;;;;;;;;5081163;28;20032;-57
2023/08/13 00:46:18;;;;;;;25.02;3.95;;;;;;;;;;5084365;28;20453;-57
2023/08/13 00:48:45;;;;;;;21.33;4.32;;;;;;;;;;5081656;28;20146;-56
2023/08/13 00:51:12;;;;;;;20.27;3.78;;;;;;;;;;5081225;28;20047;-57
2023/08/13 00:53:45;;;;;;;19.80;4.35;;;;;;;;;;5082805;28;20097;-56
2023/08/13 00:56:11;;;;;;;21.63;3.88;;;;;;;;;;5081300;28;20120;-56
2023/08/13 00:58:37;;;;;;;21.30;4.10;;;;;;;;;;5083473;28;20044;-57
2023/08/13 01:01:03;;;;;;;14.32;3.28;;;;;;;;;;5083146;28;20035;-56
2023/08/13 01:03:30;;;;;;;17.00;3.75;;;;;;;;;;5078873;28;20486;-57
2023/08/13 01:06:01;;;;;;;15.50;3.80;;;;;;;;;;5085902;28;20070;-57
2023/08/13 01:08:41;;;;;;;15.18;2.97;;;;;;;;;;5087414;28;20531;-58
2023/08/13 01:11:13;;;;;;;15.90;4.20;;;;;;;;;;5102641;28;20487;-57
2023/08/13 01:13:44;;;;;;;20.60;3.70;;;;;;;;;;5090527;28;21214;-57
2023/08/13 01:16:10;;;;;;;26.08;4.93;;;;;;;;;;5084712;28;20547;-57
2023/08/13 01:18:40;;;;;;;16.60;3.83;;;;;;;;;;5085958;28;20113;-57
2023/08/13 01:21:06;;;;;;;24.73;4.50;;;;;;;;;;5097757;28;20598;-57
2023/08/13 01:23:32;;;;;;;21.42;4.45;;;;;;;;;;5100529;28;20044;-57
2023/08/13 01:26:04;;;;;;;19.02;3.63;;;;;;;;;;5097505;28;20126;-57
2023/08/13 01:28:59;;;;;;;16.73;4.10;;;;;;;;;;5093057;28;20109;-57
2023/08/13 01:31:28;;;;;;;19.38;4.63;;;;;;;;;;5087012;28;20044;-57
2023/08/13 01:33:56;;;;;;;17.33;4.13;;;;;;;;;;5084395;28;20044;-57
2023/08/13 01:36:25;;;;;;;19.63;4.18;;;;;;;;;;5087648;28;20092;-57
2023/08/13 01:38:51;;;;;;;19.17;4.35;;;;;;;;;;5095886;28;20478;-56
2023/08/13 01:41:17;;;;;;;19.25;4.00;;;;;;;;;;5100273;28;20042;-57
2023/08/13 01:43:44;;;;;;;16.17;3.95;;;;;;;;;;5097581;28;20217;-57
2023/08/13 01:46:10;;;;;;;19.90;3.35;;;;;;;;;;5090438;28;20044;-57
2023/08/13 01:48:36;;;;;;;20.55;4.40;;;;;;;;;;5093385;28;20048;-57
2023/08/13 01:51:02;;;;;;;27.08;5.70;;;;;;;;;;5103471;28;20044;-57
2023/08/13 01:53:28;;;;;;;21.90;4.00;;;;;;;;;;5082935;28;20047;-57
2023/08/13 01:55:55;;;;;;;27.25;5.40;;;;;;;;;;5107936;28;20040;-57
2023/08/13 01:58:21;;;;;;;18.77;3.67;;;;;;;;;;5101504;28;20122;-57
2023/08/13 02:00:47;;;;;;;18.98;4.50;;;;;;;;;;5094494;28;20119;-57
2023/08/13 02:03:13;;;;;;;25.08;4.65;;;;;;;;;;5092954;28;20055;-57
2023/08/13 02:05:39;;;;;;;21.42;4.50;;;;;;;;;;5099065;28;20047;-57
2023/08/13 02:08:06;;;;;;;25.98;5.38;;;;;;;;;;5096724;28;20132;-57
2023/08/13 02:10:32;;;;;;;28.98;4.40;;;;;;;;;;5101653;28;20050;-57
2023/08/13 02:12:59;;;;;;;24.00;4.65;;;;;;;;;;5098243;28;20610;-57
2023/08/13 02:15:25;;;;;;;22.35;4.90;;;;;;;;;;5105157;28;20391;-57
2023/08/13 02:17:51;;;;;;;20.80;3.33;;;;;;;;;;5111141;28;20108;-57
2023/08/13 02:20:17;;;;;;;29.05;3.85;;;;;;;;;;5109183;28;20524;-57
2023/08/13 02:22:43;;;;;;;20.27;3.92;;;;;;;;;;5086362;27;20043;-57
2023/08/13 02:25:10;;;;;;;22.70;5.00;;;;;;;;;;5090385;28;20049;-57
2023/08/13 02:27:36;;;;;;;20.23;4.03;;;;;;;;;;5105041;28;20353;-57
2023/08/13 02:30:03;;;;;;;24.85;3.72;;;;;;;;;;5087229;28;20051;-57
2023/08/13 02:32:30;;;;;;;18.90;3.50;;;;;;;;;;5084137;28;20044;-56
2023/08/13 02:34:56;;;;;;;18.67;3.80;;;;;;;;;;5081971;28;20040;-56
2023/08/13 02:37:22;;;;;;;18.00;4.40;;;;;;;;;;5085089;28;20044;-57
2023/08/13 02:39:48;;;;;;;18.60;4.43;;;;;;;;;;5091484;28;20680;-56
2023/08/13 02:42:14;;;;;;;18.17;4.18;;;;;;;;;;5083836;28;20048;-56
2023/08/13 02:44:41;;;;;;;17.65;4.03;;;;;;;;;;5099993;28;20117;-56
2023/08/13 02:47:07;;;;;;;15.50;3.83;;;;;;;;;;5094146;28;20048;-57
2023/08/13 02:49:33;;;;;;;17.23;4.05;;;;;;;;;;5098650;28;20156;-57
2023/08/13 02:51:59;;;;;;;18.60;4.70;;;;;;;;;;5096741;28;20122;-57
2023/08/13 02:54:25;;;;;;;18.23;4.85;;;;;;;;;;5086172;28;20044;-57
2023/08/13 02:56:51;;;;;;;16.00;4.18;;;;;;;;;;5111806;28;20100;-57
2023/08/13 02:59:18;;;;;;;16.30;4.60;;;;;;;;;;5106885;28;20420;-57
2023/08/13 03:01:45;;;;;;;16.10;4.22;;;;;;;;;;5099331;28;20040;-57
2023/08/13 03:04:11;;;;;;;21.40;4.53;;;;;;;;;;5085081;28;20131;-57
2023/08/13 03:06:37;;;;;;;16.02;4.05;;;;;;;;;;5077177;28;20488;-57
2023/08/13 03:09:04;;;;;;;18.67;4.18;;;;;;;;;;5090895;28;20036;-57
2023/08/13 03:11:30;;;;;;;16.75;4.28;;;;;;;;;;5094440;28;20442;-56
2023/08/13 03:13:56;;;;;;;19.88;4.70;;;;;;;;;;5104438;28;20036;-57
2023/08/13 03:16:22;;;;;;;17.27;4.03;;;;;;;;;;5098277;28;20141;-57
2023/08/13 03:18:48;;;;;;;17.95;4.65;;;;;;;;;;5097067;28;20044;-57
2023/08/13 03:21:15;;;;;;;15.32;3.83;;;;;;;;;;5102504;28;20691;-57
2023/08/13 03:23:41;;;;;;;18.70;4.47;;;;;;;;;;5103186;28;20050;-56
2023/08/13 03:26:07;;;;;;;16.10;3.63;;;;;;;;;;5102048;28;20043;-57
2023/08/13 03:28:33;;;;;;;17.63;4.13;;;;;;;;;;5098126;28;20394;-57
2023/08/13 03:31:00;;;;;;;18.67;3.85;;;;;;;;;;5101864;28;20066;-57
2023/08/13 03:33:26;;;;;;;13.25;3.85;;;;;;;;;;5084237;28;20044;-57
2023/08/13 03:35:52;;;;;;;17.58;3.78;;;;;;;;;;5092341;28;20080;-57
2023/08/13 03:38:19;;;;;;;16.50;3.70;;;;;;;;;;5091354;28;20040;-57
2023/08/13 03:40:45;;;;;;;15.68;4.32;;;;;;;;;;5103889;28;20535;-57
2023/08/13 03:43:11;;;;;;;21.13;4.53;;;;;;;;;;5104057;28;20043;-57
2023/08/13 03:45:37;;;;;;;17.88;4.75;;;;;;;;;;5101259;28;20067;-57
2023/08/13 03:48:03;;;;;;;22.65;4.68;;;;;;;;;;5101915;28;20062;-56
2023/08/13 03:50:30;;;;;;;24.08;5.35;;;;;;;;;;5109901;28;20127;-57
2023/08/13 03:52:56;;;;;;;16.25;4.78;;;;;;;;;;5102174;28;20052;-57
2023/08/13 03:55:22;;;;;;;15.77;4.28;;;;;;;;;;5096426;28;20044;-57
2023/08/13 03:57:52;;;;;;;17.15;4.40;;;;;;;;;;5102542;28;20360;-57
2023/08/13 04:00:18;;;;;;;20.40;4.72;;;;;;;;;;5102956;28;20086;-57
2023/08/13 04:02:49;;;;;;;19.52;4.63;;;;;;;;;;5094999;28;20040;-57
2023/08/13 04:05:15;;;;;;;14.75;4.72;;;;;;;;;;5087462;28;20101;-57
2023/08/13 04:07:41;;;;;;;22.48;4.72;;;;;;;;;;5096396;28;20046;-57
2023/08/13 04:10:08;;;;;;;18.45;4.82;;;;;;;;;;5081772;28;20097;-57
2023/08/13 04:12:34;;;;;;;18.77;3.97;;;;;;;;;;5094802;28;20104;-57
2023/08/13 04:15:00;;;;;;;15.55;4.10;;;;;;;;;;5100092;28;20111;-57
2023/08/13 04:17:26;;;;;;;20.50;5.00;;;;;;;;;;5087642;28;20032;-57
2023/08/13 04:19:52;;;;;;;22.75;5.00;;;;;;;;;;5086389;28;20044;-58
2023/08/13 04:22:18;;;;;;;29.38;4.40;;;;;;;;;;5085434;28;20039;-57
2023/08/13 04:24:50;;;;;;;20.42;5.40;;;;;;;;;;5089482;28;20043;-57
2023/08/13 04:27:16;;;;;;;15.07;4.72;;;;;;;;;;5090510;28;20051;-56
2023/08/13 04:29:43;;;;;;;18.77;4.97;;;;;;;;;;5102698;28;20059;-56
2023/08/13 04:32:09;;;;;;;23.60;5.30;;;;;;;;;;5087140;28;20051;-57
2023/08/13 04:34:35;;;;;;;14.65;4.22;;;;;;;;;;5092516;28;20070;-56
2023/08/13 04:37:01;;;;;;;27.33;4.90;;;;;;;;;;5091134;28;20481;-57
2023/08/13 04:39:27;;;;;;;18.02;4.30;;;;;;;;;;5089414;28;20032;-57
2023/08/13 04:41:58;;;;;;;19.90;4.75;;;;;;;;;;5102858;28;20048;-57
2023/08/13 04:44:24;;;;;;;20.73;4.45;;;;;;;;;;5111241;28;20054;-57
2023/08/13 04:46:51;;;;;;;21.15;4.95;;;;;;;;;;5098718;28;20048;-57
2023/08/13 04:49:17;;;;;;;20.58;5.07;;;;;;;;;;5107427;28;20055;-57
2023/08/13 04:51:43;;;;;;;21.85;4.72;;;;;;;;;;5098346;28;20483;-57
2023/08/13 04:54:09;;;;;;;20.33;4.70;;;;;;;;;;5103791;28;20143;-58
2023/08/13 04:56:35;;;;;;;16.45;4.18;;;;;;;;;;5104726;28;20043;-57
2023/08/13 04:59:02;;;;;;;18.13;5.18;;;;;;;;;;5111177;28;20094;-57
2023/08/13 05:01:28;;;;;;;21.55;5.32;;;;;;;;;;5110991;28;20483;-57
2023/08/13 05:03:54;;;;;;;19.33;4.65;;;;;;;;;;5098733;28;20047;-57
2023/08/13 05:06:20;;;;;;;12.38;4.00;;;;;;;;;;5095278;28;20035;-57
2023/08/13 05:08:47;;;;;;;17.35;4.82;;;;;;;;;;5099576;28;20043;-57
2023/08/13 05:11:13;;;;;;;16.33;4.07;;;;;;;;;;5096157;28;20055;-57
2023/08/13 05:13:39;;;;;;;18.83;4.68;;;;;;;;;;5102660;28;20099;-57
2023/08/13 05:16:05;;;;;;;19.30;4.70;;;;;;;;;;5103686;28;20036;-57
2023/08/13 05:18:31;;;;;;;18.15;4.38;;;;;;;;;;5094522;28;20040;-57
2023/08/13 05:20:57;;;;;;;21.15;5.30;;;;;;;;;;5107800;28;20491;-57
2023/08/13 05:23:23;;;;;;;22.48;4.78;;;;;;;;;;5095036;28;20271;-57
2023/08/13 05:25:50;;;;;;;21.95;6.18;;;;;;;;;;5100666;28;20137;-57
2023/08/13 05:28:16;;;;;;;19.67;4.72;;;;;;;;;;5108155;28;20047;-57
2023/08/13 05:30:42;;;;;;;20.92;6.15;;;;;;;;;;5114250;28;20040;-57
2023/08/13 05:33:08;;;;;;;22.80;5.00;;;;;;;;;;5111971;28;20457;-57
2023/08/13 05:35:34;;;;;;;27.00;6.00;;;;;;;;;;5106026;27;20177;-57
2023/08/13 05:38:01;;;;;;;19.42;4.90;;;;;;;;;;5106333;28;20158;-57
2023/08/13 05:40:27;;;;;;;21.02;4.90;;;;;;;;;;5098073;28;20476;-57
2023/08/13 05:42:53;;;;;;;12.50;4.38;;;;;;;;;;5113927;28;20039;-57
2023/08/13 05:45:19;;;;;;;19.10;4.47;;;;;;;;;;5106311;28;20101;-57
2023/08/13 05:47:45;;;;;;;23.63;4.95;;;;;;;;;;5114464;28;20451;-57
2023/08/13 05:50:11;;;;;;;19.05;4.45;;;;;;;;;;5103127;28;20094;-57
2023/08/13 05:52:38;;;;;;;14.73;4.10;;;;;;;;;;5110444;28;20040;-57
2023/08/13 05:55:04;;;;;;;22.92;5.13;;;;;;;;;;5101172;27;20507;-57
2023/08/13 05:57:30;;;;;;;18.95;5.10;;;;;;;;;;5109087;28;20043;-57
2023/08/13 05:59:57;;;;;;;23.27;5.22;;;;;;;;;;5113679;28;20047;-57
2023/08/13 06:02:23;;;;;;;23.70;5.25;;;;;;;;;;5102960;28;20120;-57
2023/08/13 06:04:49;;;;;;;18.98;5.57;;;;;;;;;;5103428;28;20041;-57
2023/08/13 06:07:16;;;;;;;22.08;4.47;;;;;;;;;;5098071;28;20484;-57
2023/08/13 06:09:42;;;;;;;21.15;4.88;;;;;;;;;;5094245;28;20044;-57
2023/08/13 06:12:08;;;;;;;14.90;4.80;;;;;;;;;;5114194;28;20039;-57
2023/08/13 06:14:34;;;;;;;18.65;5.63;;;;;;;;;;5113270;28;20073;-57
2023/08/13 06:17:01;;;;;;;15.27;4.57;;;;;;;;;;5102540;28;20036;-57
2023/08/13 06:19:27;;;;;;;17.38;4.95;;;;;;;;;;5108603;28;20053;-57
2023/08/13 06:21:53;;;;;;;18.38;5.07;;;;;;;;;;5093481;28;20119;-57
2023/08/13 06:24:22;;;;;;;20.70;4.57;;;;;;;;;;5099632;28;20063;-57
2023/08/13 06:26:48;;;;;;;22.40;3.97;;;;;;;;;;5105295;28;20044;-57
2023/08/13 06:29:15;;;;;;;22.73;3.90;;;;;;;;;;5087587;28;20098;-58
2023/08/13 06:31:41;;;;;;;20.90;4.35;;;;;;;;;;5090174;28;20368;-57
2023/08/13 06:34:07;;;;;;;28.65;4.70;;;;;;;;;;5092571;28;20040;-57
2023/08/13 06:36:33;;;;;;;16.85;3.78;;;;;;;;;;5092311;28;20487;-57
2023/08/13 06:38:59;;;;;;;23.25;4.03;;;;;;;;;;5085517;28;20063;-57
2023/08/13 06:41:26;;;;;;;26.67;4.85;;;;;;;;;;5111031;28;20055;-58
2023/08/13 06:43:52;;;;;;;26.67;4.22;;;;;;;;;;5111476;28;20099;-57
2023/08/13 06:46:18;;;;;;;20.15;4.30;;;;;;;;;;5088257;28;20536;-57
2023/08/13 06:48:44;;;;;;;16.65;3.83;;;;;;;;;;5089909;28;20077;-57
2023/08/13 06:51:11;;;;;;;20.02;3.72;;;;;;;;;;5112067;28;20039;-58
2023/08/13 06:53:38;;;;;;;23.92;5.32;;;;;;;;;;5113556;28;20116;-57
2023/08/13 06:56:04;;;;;;;18.70;4.55;;;;;;;;;;5112424;28;20054;-57
2023/08/13 06:58:30;;;;;;;14.85;4.47;;;;;;;;;;5105359;28;20052;-58
2023/08/13 07:00:56;;;;;;;18.58;4.22;;;;;;;;;;5100274;28;20097;-58
2023/08/13 07:03:22;;;;;;;17.30;4.07;;;;;;;;;;5093374;28;20048;-58
2023/08/13 07:05:49;;;;;;;16.42;4.97;;;;;;;;;;5092397;28;20111;-58
2023/08/13 07:08:15;;;;;;;17.85;4.30;;;;;;;;;;5095170;28;20158;-57
2023/08/13 07:10:41;;;;;;;16.73;5.32;;;;;;;;;;5091557;28;20075;-57
2023/08/13 07:13:07;;;;;;;16.08;5.88;;;;;;;;;;5110238;28;20514;-57
2023/08/13 07:15:34;;;;;;;16.92;4.90;;;;;;;;;;5097538;28;20040;-57
2023/08/13 07:18:00;;;;;;;20.90;5.13;;;;;;;;;;5104197;28;20055;-57
2023/08/13 07:20:26;;;;;;;16.23;4.72;;;;;;;;;;5101565;28;20067;-57
2023/08/13 07:22:53;;;;;;;15.10;4.45;;;;;;;;;;5092861;28;20036;-57
2023/08/13 07:25:19;;;;;;;15.60;5.15;;;;;;;;;;5096201;28;20363;-62
2023/08/13 07:27:45;;;;;;;19.23;5.05;;;;;;;;;;5108629;28;20039;-57
2023/08/13 07:30:12;;;;;;;18.70;5.20;;;;;;;;;;5104468;28;20043;-57
2023/08/13 07:32:42;;;;;;;20.25;4.90;;;;;;;;;;5088554;28;20435;-57
2023/08/13 07:35:10;;;;;;;15.65;4.35;;;;;;;;;;5089823;28;20395;-57
2023/08/13 07:37:36;;;;;;;15.85;4.18;;;;;;;;;;5093835;28;20059;-57
2023/08/13 07:40:07;;;;;;;22.80;4.07;;;;;;;;;;5098606;28;20547;-57
2023/08/13 07:42:34;;;;;;;13.32;3.83;;;;;;;;;;5108622;27;20135;-58
2023/08/13 07:45:01;;;;;;;22.13;4.95;;;;;;;;;;5087587;28;20421;-57
2023/08/13 07:47:27;;;;;;;16.88;4.30;;;;;;;;;;5095764;28;20503;-58
2023/08/13 07:49:54;;;;;;;11.27;3.72;;;;;;;;;;5100248;28;20048;-57
2023/08/13 07:52:20;;;;;;;14.65;3.10;;;;;;;;;;5087993;28;20070;-57
2023/08/13 07:54:47;;;;;;;14.95;3.63;;;;;;;;;;5093355;28;20048;-57
2023/08/13 07:57:13;;;;;;;17.38;3.53;;;;;;;;;;5095540;28;20058;-58
2023/08/13 07:59:40;;;;;;;13.65;3.65;;;;;;;;;;5094420;28;20491;-57
2023/08/13 08:02:07;;;;;;;15.63;3.42;;;;;;;;;;5093808;28;20463;-57
2023/08/13 08:04:33;;;;;;;12.48;2.75;;;;;;;;;;5107611;28;20098;-58
2023/08/13 08:06:59;;;;;;;13.27;4.00;;;;;;;;;;5110044;27;20100;-57
2023/08/13 08:09:25;;;;;;;19.02;3.83;;;;;;;;;;5101876;28;20107;-57
2023/08/13 08:11:51;;;;;;;12.20;3.05;;;;;;;;;;5086450;28;20111;-57
2023/08/13 08:14:18;;;;;;;18.00;4.20;;;;;;;;;;5091886;28;20052;-57
2023/08/13 08:16:44;;;;;;;12.43;3.25;;;;;;;;;;5096579;28;20087;-57
2023/08/13 08:19:10;;;;;;;11.13;2.50;;;;;;;;;;5110702;28;20105;-57
2023/08/13 08:21:37;;;;;;;16.02;3.63;;;;;;;;;;5104047;28;20031;-57
2023/08/13 08:24:03;;;;;;;11.52;2.75;;;;;;;;;;5111945;28;20043;-58
2023/08/13 08:26:30;;;;;;;10.48;2.75;;;;;;;;;;5110830;28;20041;-58
2023/08/13 08:28:57;;;;;;;13.35;3.13;;;;;;;;;;5111891;28;20101;-59
2023/08/13 08:31:23;;;;;;;11.70;2.97;;;;;;;;;;5103720;28;20571;-58
2023/08/13 08:33:49;;;;;;;19.67;5.47;;;;;;;;;;5109958;28;20399;-59
2023/08/13 08:36:15;;;;;;;12.82;3.95;;;;;;;;;;5110222;28;20115;-59
2023/08/13 08:38:41;;;;;;;15.25;4.30;;;;;;;;;;5094756;28;20044;-59
2023/08/13 08:41:09;;;;;;;16.30;5.78;;;;;;;;;;5099856;28;20538;-59
2023/08/13 08:43:38;;;;;;;16.88;4.72;;;;;;;;;;5111515;28;20347;-59
2023/08/13 08:46:07;;;;;;;15.82;4.95;;;;;;;;;;5111264;28;20070;-59
2023/08/13 08:48:33;;;;;;;21.30;6.45;;;;;;;;;;5107097;28;20059;-59
2023/08/13 08:51:00;;;;;;;19.58;3.30;;;;;;;;;;5110293;28;20044;-59
2023/08/13 08:53:26;;;;;;;15.65;5.57;;;;;;;;;;5111272;28;20052;-59
2023/08/13 08:55:53;;;;;;;8.77;2.50;;;;;;;;;;5110533;28;20039;-59
2023/08/13 08:58:19;;;;;;;14.77;3.45;;;;;;;;;;5107267;28;20098;-59
2023/08/13 09:00:46;;;;;;;10.18;2.90;;;;;;;;;;5111367;28;20084;-59
2023/08/13 09:03:12;;;;;;;14.82;3.75;;;;;;;;;;5102124;28;20080;-59
2023/08/13 09:05:38;;;;;;;11.02;2.97;;;;;;;;;;5111396;28;20392;-59
2023/08/13 09:08:12;;;;;;;14.60;2.60;;;;;;;;;;5106289;28;20101;-59
2023/08/13 09:10:41;;;;;;;13.73;2.50;;;;;;;;;;5110405;28;20126;-60
2023/08/13 09:13:08;;;;;;;13.60;2.90;;;;;;;;;;5102222;28;20043;-59
2023/08/13 09:15:34;;;;;;;12.82;2.58;;;;;;;;;;5108469;28;20095;-59
2023/08/13 09:18:00;;;;;;;11.93;2.28;;;;;;;;;;5098956;28;20403;-59
2023/08/13 09:20:26;;;;;;;11.27;3.25;;;;;;;;;;5102065;28;20561;-60
2023/08/13 09:22:53;;;;;;;13.40;2.90;;;;;;;;;;5087565;28;20131;-59
2023/08/13 09:25:19;;;;;;;12.90;2.50;;;;;;;;;;5097701;28;20048;-60
2023/08/13 09:27:46;;;;;;;11.45;2.40;;;;;;;;;;5089703;28;20107;-59
2023/08/13 09:30:19;;;;;;;14.38;3.53;;;;;;;;;;5101004;28;20039;-60
2023/08/13 09:32:48;;;;;;;9.65;2.40;;;;;;;;;;5098453;28;20036;-60
2023/08/13 09:35:14;;;;;;;11.05;2.42;;;;;;;;;;5099678;28;20044;-59
2023/08/13 09:37:40;;;;;;;15.70;2.55;;;;;;;;;;5094228;28;20044;-59
2023/08/13 09:40:07;;;;;;;8.30;2.35;;;;;;;;;;5082991;28;20040;-59
2023/08/13 09:42:33;;;;;;;11.48;2.85;;;;;;;;;;5094081;28;20067;-60
2023/08/13 09:45:03;;;;;;;9.90;2.10;;;;;;;;;;5102816;28;21314;-59
2023/08/13 09:47:33;;;;;;;10.38;2.47;;;;;;;;;;5094306;28;20547;-60
2023/08/13 09:50:01;;;;;;;11.77;2.00;;;;;;;;;;5098545;28;20352;-60
2023/08/13 09:52:27;;;;;;;8.35;2.30;;;;;;;;;;5109829;28;20107;-60
2023/08/13 09:55:00;;;;;;;12.70;2.28;;;;;;;;;;5100799;28;20126;-60
2023/08/13 09:57:27;;;;;;;9.23;2.38;;;;;;;;;;5104770;28;20492;-60
2023/08/13 09:59:53;;;;;;;10.48;2.45;;;;;;;;;;5109871;28;20479;-59
2023/08/13 10:02:21;;;;;;;9.27;2.05;;;;;;;;;;5096499;28;20078;-59
2023/08/13 10:04:47;;;;;;;8.43;2.35;;;;;;;;;;5108453;28;20069;-59
2023/08/13 10:07:14;;;;;;;10.93;2.05;;;;;;;;;;5102758;28;20096;-59
2023/08/13 10:09:40;;;;;;;9.85;2.40;;;;;;;;;;5090301;28;20083;-59
2023/08/13 10:12:09;;;;;;;10.23;2.95;;;;;;;;;;5100535;28;20043;-59
2023/08/13 10:14:36;;;;;;;12.23;2.50;;;;;;;;;;5110774;28;20063;-59
2023/08/13 10:17:05;;;;;;;8.52;2.70;;;;;;;;;;5096545;28;20369;-59
2023/08/13 10:19:32;;;;;;;17.65;3.28;;;;;;;;;;5090681;28;20386;-59
2023/08/13 10:21:58;;;;;;;12.38;3.15;;;;;;;;;;5091962;28;20528;-59
2023/08/13 10:24:28;;;;;;;11.40;2.50;;;;;;;;;;5089382;28;20066;-59
2023/08/13 10:26:54;;;;;;;8.60;2.67;;;;;;;;;;5092980;28;20036;-60
2023/08/13 10:29:21;;;;;;;13.00;2.80;;;;;;;;;;5093829;28;20079;-59
2023/08/13 10:31:49;;;;;;;10.70;2.50;;;;;;;;;;5092695;28;20126;-59
2023/08/13 10:34:19;;;;;;;10.77;3.33;;;;;;;;;;5091500;28;20048;-58
2023/08/13 10:36:52;;;;;;;12.38;3.33;;;;;;;;;;5096507;28;20039;-57
2023/08/13 10:39:37;;;;;;;10.32;2.47;;;;;;;;;;5086869;28;20440;-58
2023/08/13 10:42:04;;;;;;;10.73;3.88;;;;;;;;;;5101555;28;20048;-58
2023/08/13 10:44:39;;;;;;;13.60;3.53;;;;;;;;;;5113367;28;20043;-58
2023/08/13 10:47:06;;;;;;;9.05;3.40;;;;;;;;;;5092506;28;20072;-58
2023/08/13 10:49:32;;;;;;;11.18;2.88;;;;;;;;;;5111350;28;20096;-59
2023/08/13 10:52:01;;;;;;;10.73;3.08;;;;;;;;;;5113687;28;20042;-58
2023/08/13 10:54:28;;;;;;;10.75;2.88;;;;;;;;;;5105796;27;20054;-59
2023/08/13 10:56:58;;;;;;;14.43;2.60;;;;;;;;;;5099638;28;20048;-58
2023/08/13 10:59:40;;;;;;;9.93;3.00;;;;;;;;;;5092874;28;20120;-58
2023/08/13 11:02:11;;;;;;;10.95;2.60;;;;;;;;;;5081771;28;20041;-58
2023/08/13 11:04:41;;;;;;;14.07;2.97;;;;;;;;;;5097753;28;20036;-58
2023/08/13 11:07:07;;;;;;;9.48;3.05;;;;;;;;;;5109014;28;20043;-58
2023/08/13 11:09:34;;;;;;;8.52;2.50;;;;;;;;;;5101128;28;20120;-58
2023/08/13 11:12:00;;;;;;;13.48;2.70;;;;;;;;;;5087276;28;20102;-57
2023/08/13 11:14:29;;;;;;;12.15;3.30;;;;;;;;;;5094306;28;20392;-58
2023/08/13 11:16:55;;;;;;;9.95;3.38;;;;;;;;;;5091676;28;20054;-57
2023/08/13 11:19:22;;;;;;;10.30;3.08;;;;;;;;;;5093342;28;20551;-57
2023/08/13 11:21:49;;;;;;;9.63;4.30;;;;;;;;;;5094937;28;20561;-58
2023/08/13 11:24:15;;;;;;;11.50;2.97;;;;;;;;;;5081938;28;20140;-58
2023/08/13 11:26:42;;;;;;;10.55;2.90;;;;;;;;;;5091807;28;20031;-57
2023/08/13 11:29:08;;;;;;;12.40;3.45;;;;;;;;;;5091140;28;20499;-57
2023/08/13 11:31:34;;;;;;;13.68;4.28;;;;;;;;;;5090591;28;20039;-57
2023/08/13 11:34:00;;;;;;;10.23;4.03;;;;;;;;;;5091479;28;20054;-57
2023/08/13 11:36:27;;;;;;;8.50;4.13;;;;;;;;;;5085172;28;20490;-57
2023/08/13 11:38:53;;;;;;;10.32;3.90;;;;;;;;;;5092230;28;20048;-57
2023/08/13 11:41:21;;;;;;;13.48;4.28;;;;;;;;;;5098059;28;20054;-57
2023/08/13 11:43:54;;;;;;;11.82;4.10;;;;;;;;;;5102418;28;20044;-57
2023/08/13 11:46:20;;;;;;;11.25;4.88;;;;;;;;;;5085927;28;20068;-57
2023/08/13 11:48:47;;;;;;;9.98;5.50;;;;;;;;;;5112426;27;20134;-57
2023/08/13 11:51:14;;;;;;;10.10;3.92;;;;;;;;;;5111582;28;20058;-57
2023/08/13 11:53:44;;;;;;;10.82;4.88;;;;;;;;;;5112276;28;20044;-58
2023/08/13 11:56:14;;;;;;;15.25;4.20;;;;;;;;;;5096258;28;20051;-58
2023/08/13 11:58:40;;;;;;;10.45;3.90;;;;;;;;;;5095923;27;20138;-57
2023/08/13 12:01:07;;;;;;;8.45;3.72;;;;;;;;;;5094448;28;20476;-57
2023/08/13 12:03:36;;;;;;;10.10;2.90;;;;;;;;;;5100676;28;20105;-57
2023/08/13 12:06:02;;;;;;;12.38;3.15;;;;;;;;;;5111336;28;20048;-57
2023/08/13 12:08:29;;;;;;;11.23;3.47;;;;;;;;;;5112091;28;20047;-58
2023/08/13 12:10:57;;;;;;;6.43;3.03;;;;;;;;;;5092644;28;20149;-57
2023/08/13 12:13:23;;;;;;;7.00;3.15;;;;;;;;;;5097787;28;20191;-57
2023/08/13 12:15:50;;;;;;;7.50;2.75;;;;;;;;;;5112404;28;20437;-57
2023/08/13 12:18:16;;;;;;;9.38;2.75;;;;;;;;;;5096587;28;20096;-57
2023/08/13 12:20:42;;;;;;;8.10;3.10;;;;;;;;;;5111827;28;20040;-58
2023/08/13 12:23:08;;;;;;;10.88;2.92;;;;;;;;;;5111582;28;20109;-57
2023/08/13 12:25:35;;;;;;;9.77;2.60;;;;;;;;;;5099135;28;20036;-57
2023/08/13 12:28:01;;;;;;;7.38;3.47;;;;;;;;;;5104367;28;20074;-57
2023/08/13 12:30:27;;;;;;;7.22;2.35;;;;;;;;;;5106125;28;20036;-58
2023/08/13 12:32:53;;;;;;;8.23;2.33;;;;;;;;;;5094022;28;20040;-58
2023/08/13 12:35:21;;;;;;;4.85;1.73;;;;;;;;;;5109536;28;20148;-58
2023/08/13 12:37:47;;;;;;;7.90;2.60;;;;;;;;;;5110700;28;20043;-57
2023/08/13 12:40:14;;;;;;;7.85;1.92;;;;;;;;;;5093966;28;20556;-57
2023/08/13 12:42:40;;;;;;;6.15;1.60;;;;;;;;;;5111391;28;20467;-57
2023/08/13 12:45:07;;;;;;;8.65;2.42;;;;;;;;;;5105383;28;20050;-57
2023/08/13 12:47:33;;;;;;;8.73;1.80;;;;;;;;;;5109100;28;20049;-58
2023/08/13 12:50:00;;;;;;;8.68;1.92;;;;;;;;;;5111438;28;20126;-58
2023/08/13 12:52:26;;;;;;;6.63;1.60;;;;;;;;;;5111160;28;20036;-57
2023/08/13 12:54:52;;;;;;;9.40;1.50;;;;;;;;;;5099693;28;20050;-57
2023/08/13 12:57:18;;;;;;;4.43;1.50;;;;;;;;;;5106204;28;20051;-58
2023/08/13 12:59:45;;;;;;;5.03;1.25;;;;;;;;;;5105189;28;20040;-57
2023/08/13 13:02:11;;;;;;;8.75;1.63;;;;;;;;;;5090548;28;20040;-57
2023/08/13 13:04:37;;;;;;;6.40;1.50;;;;;;;;;;5108417;28;20067;-58
2023/08/13 13:07:03;;;;;;;5.57;1.83;;;;;;;;;;5099495;28;20408;-57
2023/08/13 13:09:30;;;;;;;6.38;1.25;;;;;;;;;;5097846;28;20047;-58
2023/08/13 13:11:56;;;;;;;5.88;1.52;;;;;;;;;;5107678;28;20038;-57
2023/08/13 13:14:23;;;;;;;5.70;1.30;;;;;;;;;;5111152;28;20498;-58
2023/08/13 13:16:49;;;;;;;7.15;1.17;;;;;;;;;;5110199;28;20036;-57
2023/08/13 13:19:18;;;;;;;4.30;1.20;;;;;;;;;;5097585;28;20040;-57
2023/08/13 13:21:44;;;;;;;7.18;1.40;;;;;;;;;;5104502;28;20502;-58
2023/08/13 13:24:11;;;;;;;5.30;1.52;;;;;;;;;;5101117;28;20066;-58
2023/08/13 13:26:37;;;;;;;4.55;1.25;;;;;;;;;;5110831;28;20146;-58
2023/08/13 13:29:05;;;;;;;5.22;1.00;;;;;;;;;;5110177;28;20039;-57
2023/08/13 13:31:31;;;;;;;4.15;0.90;;;;;;;;;;5110900;28;20043;-57
2023/08/13 13:33:57;;;;;;;4.75;1.20;;;;;;;;;;5103349;28;20079;-58
2023/08/13 13:36:23;;;;;;;5.65;0.85;;;;;;;;;;5102810;28;20107;-58
2023/08/13 13:38:50;;;;;;;3.10;0.80;;;;;;;;;;5098826;28;20086;-57
2023/08/13 13:41:16;;;;;;;4.30;1.30;;;;;;;;;;5110725;28;20149;-57
2023/08/13 13:43:42;;;;;;;6.10;1.08;;;;;;;;;;5110197;28;20395;-57
2023/08/13 13:46:08;;;;;;;4.13;0.70;;;;;;;;;;5110391;28;20043;-57
2023/08/13 13:48:34;;;;;;;4.18;0.90;;;;;;;;;;5088434;28;20525;-57
2023/08/13 13:51:00;;;;;;;4.30;1.55;;;;;;;;;;5111049;28;20082;-57
2023/08/13 13:53:27;;;;;;;5.25;0.80;;;;;;;;;;5114843;28;20555;-58
2023/08/13 13:55:53;;;;;;;5.53;0.98;;;;;;;;;;5114709;28;20054;-58
2023/08/13 13:58:19;;;;;;;3.35;0.90;;;;;;;;;;5113860;28;20044;-58
2023/08/13 14:00:48;;;;;;;3.80;1.08;;;;;;;;;;5106496;28;20032;-58
2023/08/13 14:03:15;;;;;;;3.63;0.90;;;;;;;;;;5097632;28;20043;-58
2023/08/13 14:05:41;;;;;;;3.83;0.70;;;;;;;;;;5113777;28;20040;-58
2023/08/13 14:08:07;;;;;;;2.95;0.80;;;;;;;;;;5094707;28;20044;-57
2023/08/13 14:10:34;;;;;;;3.50;0.90;;;;;;;;;;5092693;28;20063;-58
2023/08/13 14:13:00;;;;;;;5.07;1.13;;;;;;;;;;5092793;28;20048;-57
2023/08/13 14:15:26;;;;;;;3.55;1.00;;;;;;;;;;5092138;28;20380;-57
2023/08/13 14:17:52;;;;;;;4.57;1.02;;;;;;;;;;5092960;28;20055;-57
2023/08/13 14:20:18;;;;;;;4.30;1.38;;;;;;;;;;5094060;28;20036;-57
2023/08/13 14:22:45;;;;;;;5.63;1.10;;;;;;;;;;5092103;28;20380;-58
2023/08/13 14:25:11;;;;;;;4.63;1.48;;;;;;;;;;5092925;28;20139;-58
2023/08/13 14:27:38;;;;;;;4.32;1.40;;;;;;;;;;5093809;28;20051;-58
2023/08/13 14:30:04;;;;;;;5.35;1.40;;;;;;;;;;5091225;28;20464;-58
2023/08/13 14:32:30;;;;;;;4.15;0.93;;;;;;;;;;5092877;28;20063;-58